sensor_id;sensor_type;location;lat;lon;timestamp;P1;durP1;ratioP1;P2;durP2;ratioP2
79779;SDS011;69258;52.050;10.334;2024-01-11T00:02:10;14.97;;;11.80;;
79779;SDS011;69258;52.050;10.334;2024-01-11T00:17:12;15.63;;;11.83;;
79779;SDS011;69258;52.050;10.334;2024-01-11T00:32:15;16.13;;;12.40;;
79779;SDS011;69258;52.050;10.334;2024-01-11T00:47:17;16.77;;;11.87;;
79779;SDS011;69258;52.050;10.334;2024-01-11T01:02:19;14.87;;;11.77;;
79779;SDS011;69258;52.050;10.334;2024-01-11T01:17:22;16.23;;;12.20;;
79779;SDS011;69258;52.050;10.334;2024-01-11T01:32:24;15.50;;;11.70;;
79779;SDS011;69258;52.050;10.334;2024-01-11T01:47:26;15.70;;;11.60;;
79779;SDS011;69258;52.050;10.334;2024-01-11T02:02:30;14.90;;;11.90;;
79779;SDS011;69258;52.050;10.334;2024-01-11T02:17:34;16.30;;;12.47;;
79779;SDS011;69258;52.050;10.334;2024-01-11T02:32:37;13.83;;;11.70;;
79779;SDS011;69258;52.050;10.334;2024-01-11T02:47:40;14.43;;;11.70;;
79779;SDS011;69258;52.050;10.334;2024-01-11T03:02:43;15.13;;;11.83;;
79779;SDS011;69258;52.050;10.334;2024-01-11T03:17:46;15.50;;;11.40;;
79779;SDS011;69258;52.050;10.334;2024-01-11T03:32:48;13.07;;;11.10;;
79779;SDS011;69258;52.050;10.334;2024-01-11T03:47:51;15.10;;;12.00;;
79779;SDS011;69258;52.050;10.334;2024-01-11T04:02:53;13.63;;;11.13;;
79779;SDS011;69258;52.050;10.334;2024-01-11T04:17:55;14.67;;;11.03;;
79779;SDS011;69258;52.050;10.334;2024-01-11T04:32:58;14.10;;;11.27;;
79779;SDS011;69258;52.050;10.334;2024-01-11T04:48:01;13.50;;;10.80;;
79779;SDS011;69258;52.050;10.334;2024-01-11T05:03:04;13.83;;;11.27;;
79779;SDS011;69258;52.050;10.334;2024-01-11T05:18:06;16.33;;;11.90;;
79779;SDS011;69258;52.050;10.334;2024-01-11T05:33:08;16.00;;;11.03;;
79779;SDS011;69258;52.050;10.334;2024-01-11T05:48:10;14.73;;;11.30;;
79779;SDS011;69258;52.050;10.334;2024-01-11T06:03:13;15.73;;;11.50;;
79779;SDS011;69258;52.050;10.334;2024-01-11T06:18:16;16.13;;;11.73;;
79779;SDS011;69258;52.050;10.334;2024-01-11T06:33:19;54.90;;;16.03;;
79779;SDS011;69258;52.050;10.334;2024-01-11T06:48:23;32.27;;;14.57;;
79779;SDS011;69258;52.050;10.334;2024-01-11T07:03:25;24.83;;;14.00;;
79779;SDS011;69258;52.050;10.334;2024-01-11T07:18:27;20.13;;;12.47;;
79779;SDS011;69258;52.050;10.334;2024-01-11T07:33:29;20.60;;;12.17;;
79779;SDS011;69258;52.050;10.334;2024-01-11T07:48:32;22.30;;;12.43;;
79779;SDS011;69258;52.050;10.334;2024-01-11T08:03:34;19.10;;;12.67;;
79779;SDS011;69258;52.050;10.334;2024-01-11T08:18:36;19.50;;;12.77;;
79779;SDS011;69258;52.050;10.334;2024-01-11T08:33:38;19.33;;;12.53;;
79779;SDS011;69258;52.050;10.334;2024-01-11T08:48:41;16.50;;;12.07;;
79779;SDS011;69258;52.050;10.334;2024-01-11T09:03:44;18.23;;;12.40;;
79779;SDS011;69258;52.050;10.334;2024-01-11T09:18:46;17.03;;;12.03;;
79779;SDS011;69258;52.050;10.334;2024-01-11T09:33:48;18.33;;;12.20;;
79779;SDS011;69258;52.050;10.334;2024-01-11T09:48:51;14.83;;;11.70;;
79779;SDS011;69258;52.050;10.334;2024-01-11T10:03:54;17.87;;;12.23;;
79779;SDS011;69258;52.050;10.334;2024-01-11T10:18:57;14.70;;;11.43;;
79779;SDS011;69258;52.050;10.334;2024-01-11T10:34:00;15.67;;;11.70;;
79779;SDS011;69258;52.050;10.334;2024-01-11T10:49:03;15.67;;;12.20;;
79779;SDS011;69258;52.050;10.334;2024-01-11T11:04:07;14.17;;;10.77;;
79779;SDS011;69258;52.050;10.334;2024-01-11T11:19:09;13.53;;;10.90;;
79779;SDS011;69258;52.050;10.334;2024-01-11T11:34:12;13.47;;;10.80;;
79779;SDS011;69258;52.050;10.334;2024-01-11T11:49:15;11.67;;;9.73;;
79779;SDS011;69258;52.050;10.334;2024-01-11T12:04:18;12.30;;;9.73;;
79779;SDS011;69258;52.050;10.334;2024-01-11T12:19:20;11.83;;;9.30;;
79779;SDS011;69258;52.050;10.334;2024-01-11T12:34:26;13.60;;;9.60;;
79779;SDS011;69258;52.050;10.334;2024-01-11T12:49:29;12.77;;;9.10;;
79779;SDS011;69258;52.050;10.334;2024-01-11T13:04:31;10.17;;;8.10;;
79779;SDS011;69258;52.050;10.334;2024-01-11T13:19:33;9.90;;;8.13;;
79779;SDS011;69258;52.050;10.334;2024-01-11T13:34:36;9.23;;;7.63;;
79779;SDS011;69258;52.050;10.334;2024-01-11T13:49:39;9.13;;;7.43;;
79779;SDS011;69258;52.050;10.334;2024-01-11T14:04:42;9.73;;;6.90;;
79779;SDS011;69258;52.050;10.334;2024-01-11T14:19:46;9.40;;;6.63;;
79779;SDS011;69258;52.050;10.334;2024-01-11T14:34:49;8.40;;;6.93;;
79779;SDS011;69258;52.050;10.334;2024-01-11T14:49:51;9.60;;;6.57;;
79779;SDS011;69258;52.050;10.334;2024-01-11T15:04:54;8.00;;;6.07;;
79779;SDS011;69258;52.050;10.334;2024-01-11T15:19:56;7.67;;;6.53;;
79779;SDS011;69258;52.050;10.334;2024-01-11T15:34:58;7.60;;;6.03;;
79779;SDS011;69258;52.050;10.334;2024-01-11T15:50:00;7.30;;;5.73;;
79779;SDS011;69258;52.050;10.334;2024-01-11T16:05:04;6.17;;;5.20;;
79779;SDS011;69258;52.050;10.334;2024-01-11T16:20:08;6.23;;;5.40;;
79779;SDS011;69258;52.050;10.334;2024-01-11T16:35:10;12.97;;;10.70;;
79779;SDS011;69258;52.050;10.334;2024-01-11T16:50:12;17.17;;;11.53;;
79779;SDS011;69258;52.050;10.334;2024-01-11T17:05:16;16.17;;;13.23;;
79779;SDS011;69258;52.050;10.334;2024-01-11T17:20:18;15.13;;;12.47;;
79779;SDS011;69258;52.050;10.334;2024-01-11T17:35:21;15.50;;;12.13;;
79779;SDS011;69258;52.050;10.334;2024-01-11T17:50:23;14.67;;;11.97;;
79779;SDS011;69258;52.050;10.334;2024-01-11T18:05:26;14.60;;;11.20;;
79779;SDS011;69258;52.050;10.334;2024-01-11T18:20:29;11.20;;;9.93;;
79779;SDS011;69258;52.050;10.334;2024-01-11T18:35:30;18.23;;;12.63;;
79779;SDS011;69258;52.050;10.334;2024-01-11T18:50:34;12.33;;;10.40;;
79779;SDS011;69258;52.050;10.334;2024-01-11T19:05:38;13.37;;;10.20;;
79779;SDS011;69258;52.050;10.334;2024-01-11T19:20:40;11.93;;;9.97;;
79779;SDS011;69258;52.050;10.334;2024-01-11T19:35:47;10.80;;;8.80;;
79779;SDS011;69258;52.050;10.334;2024-01-11T19:50:49;11.63;;;8.63;;
79779;SDS011;69258;52.050;10.334;2024-01-11T20:05:51;9.70;;;8.30;;
79779;SDS011;69258;52.050;10.334;2024-01-11T20:20:53;11.80;;;8.43;;
79779;SDS011;69258;52.050;10.334;2024-01-11T20:35:56;10.47;;;8.20;;
79779;SDS011;69258;52.050;10.334;2024-01-11T20:50:59;11.17;;;8.10;;
79779;SDS011;69258;52.050;10.334;2024-01-11T21:06:02;10.53;;;8.60;;
79779;SDS011;69258;52.050;10.334;2024-01-11T21:21:05;11.20;;;8.20;;
79779;SDS011;69258;52.050;10.334;2024-01-11T21:36:07;14.17;;;8.00;;
79779;SDS011;69258;52.050;10.334;2024-01-11T21:51:10;9.60;;;7.53;;
79779;SDS011;69258;52.050;10.334;2024-01-11T22:06:13;10.10;;;7.50;;
79779;SDS011;69258;52.050;10.334;2024-01-11T22:21:16;8.43;;;6.83;;
79779;SDS011;69258;52.050;10.334;2024-01-11T22:36:18;8.93;;;7.30;;
79779;SDS011;69258;52.050;10.334;2024-01-11T22:51:21;7.67;;;6.73;;
79779;SDS011;69258;52.050;10.334;2024-01-11T23:06:22;8.20;;;6.40;;
79779;SDS011;69258;52.050;10.334;2024-01-11T23:21:25;8.70;;;6.30;;
79779;SDS011;69258;52.050;10.334;2024-01-11T23:36:27;6.80;;;6.03;;
79779;SDS011;69258;52.050;10.334;2024-01-11T23:51:29;7.50;;;6.10;;
